Time;durP1;ratioP1;P1;durP2;ratioP2;P2;SDS_P1;SDS_P2;PMS_P1;PMS_P2;Temp;Humidity;BMP_temperature;BMP_pressure;BME280_temperature;BME280_humidity;BME280_pressure;Samples;Min_cycle;Max_cycle;Signal;HPM_P1;HPM_P2
2022/07/11 00:02:22;;;;;;;10.93;6.85;;;;;;;17.69;71.47;102353.41;5011921;28;20176;-56
2022/07/11 00:04:47;;;;;;;12.35;6.95;;;;;;;17.65;72.12;102354.22;5021263;28;20081;-56
2022/07/11 00:07:13;;;;;;;11.95;7.47;;;;;;;17.64;71.56;102355.97;5022264;28;20017;-56
2022/07/11 00:09:39;;;;;;;15.50;7.50;;;;;;;17.62;71.59;102362.06;5019175;28;20028;-56
2022/07/11 00:12:06;;;;;;;11.50;7.35;;;;;;;17.58;71.71;102362.88;5013292;28;20018;-56
2022/07/11 00:14:31;;;;;;;13.55;7.95;;;;;;;17.56;71.62;102361.09;5016407;28;21215;-56
2022/07/11 00:16:57;;;;;;;13.25;8.43;;;;;;;17.51;72.13;102352.22;5019931;28;20022;-56
2022/07/11 00:19:23;;;;;;;11.02;7.22;;;;;;;17.50;71.58;102345.16;5018207;28;20168;-55
2022/07/11 00:21:52;;;;;;;14.18;8.35;;;;;;;17.45;72.39;102346.84;5015259;28;20026;-56
2022/07/11 00:24:19;;;;;;;;;;;;;;;17.53;70.52;102342.56;5018209;28;20029;-56
2022/07/11 00:26:46;;;;;;;14.18;8.38;;;;;;;17.42;72.56;102341.47;5022035;28;19932;-55
2022/07/11 00:29:11;;;;;;;15.25;8.20;;;;;;;17.38;72.59;102337.03;5017140;28;20049;-55
2022/07/11 00:31:37;;;;;;;15.25;8.38;;;;;;;17.35;72.59;102342.22;5018202;28;20145;-55
2022/07/11 00:34:02;;;;;;;14.15;8.00;;;;;;;17.32;72.87;102339.53;5017944;28;20083;-55
2022/07/11 00:36:27;;;;;;;12.60;7.90;;;;;;;17.30;72.96;102333.34;5014502;28;20085;-55
2022/07/11 00:38:53;;;;;;;13.95;8.88;;;;;;;17.26;73.41;102332.38;5021000;28;20093;-55
2022/07/11 00:41:18;;;;;;;13.57;8.68;;;;;;;17.23;73.08;102334.09;5014225;28;20064;-55
2022/07/11 00:43:51;;;;;;;13.85;8.73;;;;;;;17.17;73.15;102335.72;5013921;28;20018;-56
2022/07/11 00:46:16;;;;;;;15.10;8.18;;;;;;;17.13;73.24;102333.91;5017328;28;20054;-55
2022/07/11 00:48:42;;;;;;;13.63;8.90;;;;;;;17.13;73.14;102335.63;5020879;28;20084;-56
2022/07/11 00:51:07;;;;;;;14.57;8.60;;;;;;;17.09;73.53;102324.16;5017852;28;20038;-56
2022/07/11 00:53:34;;;;;;;16.13;8.85;;;;;;;17.09;73.32;102334.72;5021294;28;20025;-56
2022/07/11 00:56:01;;;;;;;17.75;9.02;;;;;;;17.06;73.80;102332.00;5018500;28;20216;-56
2022/07/11 00:58:26;;;;;;;15.95;8.60;;;;;;;17.02;73.71;102335.44;5020942;28;20217;-56
2022/07/11 01:00:52;;;;;;;15.68;8.75;;;;;;;17.02;73.72;102330.16;5014010;28;20347;-56
2022/07/11 01:03:18;;;;;;;22.75;9.80;;;;;;;17.01;74.02;102328.38;5018035;28;20510;-56
2022/07/11 01:05:43;;;;;;;15.10;8.80;;;;;;;16.99;73.97;102330.97;5007843;28;20083;-56
2022/07/11 01:08:09;;;;;;;15.60;9.45;;;;;;;16.95;73.59;102318.59;5011812;28;20146;-56
2022/07/11 01:10:35;;;;;;;14.10;8.90;;;;;;;16.92;73.52;102322.94;5018927;28;20025;-56
2022/07/11 01:13:01;;;;;;;16.75;9.20;;;;;;;16.91;73.51;102323.78;5021513;28;20201;-56
2022/07/11 01:15:27;;;;;;;13.05;7.95;;;;;;;16.88;73.60;102327.22;5023586;28;20021;-56
2022/07/11 01:17:52;;;;;;;15.30;8.45;;;;;;;16.84;73.36;102326.25;5024541;28;20339;-56
2022/07/11 01:20:18;;;;;;;16.02;8.88;;;;;;;16.82;73.25;102327.94;5011960;28;20072;-56
2022/07/11 01:22:49;;;;;;;15.27;9.25;;;;;;;16.77;73.21;102324.34;5012654;28;20133;-56
2022/07/11 01:25:29;;;;;;;16.13;9.25;;;;;;;16.73;74.35;102321.59;5024127;28;20287;-56
2022/07/11 01:28:13;;;;;;;15.30;8.73;;;;;;;16.73;73.53;102322.50;5018579;28;20180;-56
2022/07/11 01:30:38;;;;;;;15.68;8.18;;;;;;;16.72;73.51;102331.25;5024794;28;20158;-57
2022/07/11 01:33:03;;;;;;;14.90;8.70;;;;;;;16.68;73.29;102327.66;5023896;28;20028;-56
2022/07/11 01:35:29;;;;;;;13.70;8.15;;;;;;;16.66;72.84;102321.47;5023201;28;20033;-56
2022/07/11 01:37:54;;;;;;;12.63;8.65;;;;;;;16.64;73.13;102317.91;5021458;28;20215;-56
2022/07/11 01:40:20;;;;;;;13.82;8.18;;;;;;;16.62;72.71;102319.63;5025685;28;20506;-56
2022/07/11 01:42:45;;;;;;;15.55;8.88;;;;;;;16.59;73.51;102323.94;5020416;28;20017;-56
2022/07/11 01:45:11;;;;;;;13.50;8.75;;;;;;;16.55;73.27;102322.09;5022513;28;20024;-56
2022/07/11 01:47:37;;;;;;;13.18;8.27;;;;;;;16.50;73.77;102325.50;5013710;28;20022;-56
2022/07/11 01:50:04;;;;;;;14.95;8.43;;;;;;;16.46;73.31;102328.03;5019995;28;20030;-56
2022/07/11 01:52:29;;;;;;;14.25;7.85;;;;;;;16.36;73.18;102328.66;5019005;28;20177;-56
2022/07/11 01:54:55;;;;;;;12.35;7.90;;;;;;;16.34;72.91;102331.25;5016689;28;20300;-56
2022/07/11 01:57:20;;;;;;;14.25;8.07;;;;;;;16.33;72.72;102332.09;5008134;28;20057;-56
2022/07/11 01:59:46;;;;;;;17.83;8.45;;;;;;;16.31;72.95;102328.56;5025045;28;20322;-56
2022/07/11 02:02:12;;;;;;;13.25;8.18;;;;;;;16.30;73.59;102337.31;5020152;28;20348;-56
2022/07/11 02:04:37;;;;;;;14.00;8.02;;;;;;;16.27;73.28;102337.22;5024265;28;20434;-56
2022/07/11 02:07:02;;;;;;;14.23;8.45;;;;;;;16.25;73.48;102333.66;5019229;28;20021;-56
2022/07/11 02:09:28;;;;;;;13.98;8.63;;;;;;;16.22;73.50;102341.47;5014165;28;20048;-56
2022/07/11 02:11:53;;;;;;;12.27;8.13;;;;;;;16.20;73.99;102340.56;5024114;28;20052;-56
2022/07/11 02:14:18;;;;;;;17.73;9.05;;;;;;;16.18;74.07;102337.91;5019762;28;20096;-56
2022/07/11 02:16:44;;;;;;;13.13;8.43;;;;;;;16.13;74.24;102335.16;5020117;28;20035;-56
2022/07/11 02:19:10;;;;;;;16.02;8.50;;;;;;;16.12;74.61;102327.19;5024582;28;20299;-56
2022/07/11 02:21:36;;;;;;;17.13;9.00;;;;;;;16.09;75.22;102332.41;5014605;28;20030;-56
2022/07/11 02:24:02;;;;;;;18.40;9.55;;;;;;;16.09;75.38;102324.50;5017132;28;20061;-56
2022/07/11 02:26:27;;;;;;;14.55;9.27;;;;;;;16.07;76.24;102332.34;5023208;28;20067;-56
2022/07/11 02:28:52;;;;;;;17.10;9.55;;;;;;;16.08;76.37;102323.63;5021718;28;20009;-56
2022/07/11 02:31:18;;;;;;;15.82;9.55;;;;;;;16.08;76.10;102325.38;5022298;28;20032;-56
2022/07/11 02:33:43;;;;;;;16.10;9.80;;;;;;;16.07;77.23;102329.72;5021649;28;20037;-56
2022/07/11 02:36:10;;;;;;;20.33;10.60;;;;;;;16.03;77.20;102322.63;5132745;22;20053;-96
2022/07/11 02:38:35;;;;;;;16.83;9.60;;;;;;;16.07;77.51;102329.72;5016967;28;20101;-96
2022/07/11 02:41:01;;;;;;;20.95;10.13;;;;;;;16.08;77.65;102328.88;5017530;28;20640;-96
2022/07/11 02:43:27;;;;;;;17.27;10.20;;;;;;;16.10;77.48;102323.66;5019222;28;20053;-96
2022/07/11 02:45:53;;;;;;;19.38;11.00;;;;;;;16.10;77.63;102327.16;5020020;28;20026;-96
2022/07/11 02:48:18;;;;;;;18.08;10.90;;;;;;;16.13;77.86;102323.72;5009463;28;20053;-96
2022/07/11 02:50:44;;;;;;;19.60;11.05;;;;;;;16.14;77.88;102321.13;5016533;28;20085;-94
2022/07/11 02:53:09;;;;;;;18.17;11.27;;;;;;;16.14;79.00;102329.03;5016801;28;20061;-96
2022/07/11 02:55:34;;;;;;;16.73;11.07;;;;;;;16.14;79.01;102326.41;5019168;28;20033;-96
2022/07/11 02:58:00;;;;;;;20.75;11.15;;;;;;;16.12;79.97;102322.84;5023101;28;20032;-96
2022/07/11 03:00:25;;;;;;;20.50;11.57;;;;;;;16.17;79.40;102321.22;5018052;28;20014;-94
2022/07/11 03:02:51;;;;;;;18.50;11.48;;;;;;;16.17;79.19;102315.06;5019432;28;20029;-96
2022/07/11 03:05:16;;;;;;;21.45;11.40;;;;;;;16.20;79.80;102319.53;5017854;28;20100;-96
2022/07/11 03:07:42;;;;;;;17.40;11.10;;;;;;;16.22;79.80;102325.69;5033627;28;20086;-96
2022/07/11 03:10:08;;;;;;;22.23;12.45;;;;;;;16.23;79.93;102317.84;5013137;28;20105;-96
2022/07/11 03:12:33;;;;;;;22.90;11.90;;;;;;;16.23;80.31;102319.59;5012881;28;20162;-96
2022/07/11 03:14:59;;;;;;;20.17;11.18;;;;;;;16.26;79.82;102331.06;5014394;28;20018;-96
2022/07/11 03:17:24;;;;;;;23.13;11.88;;;;;;;16.27;80.10;102327.59;5014403;28;20637;-96
2022/07/11 03:19:49;;;;;;;23.40;12.00;;;;;;;16.28;80.28;102323.19;5016570;28;20400;-96
2022/07/11 03:22:16;;;;;;;22.20;11.70;;;;;;;16.31;80.05;102333.81;5007565;28;20049;-96
2022/07/11 03:24:42;;;;;;;19.20;11.68;;;;;;;16.29;80.35;102325.91;5010432;28;20036;-96
2022/07/11 03:27:08;;;;;;;20.23;11.75;;;;;;;16.31;80.50;102333.81;5009187;28;20026;-96
2022/07/11 03:29:33;;;;;;;23.67;11.73;;;;;;;16.29;80.35;102325.91;5018487;28;20022;-96
2022/07/11 03:31:59;;;;;;;24.50;12.15;;;;;;;16.32;80.82;102333.88;5020700;28;20091;-96
2022/07/11 03:34:24;;;;;;;23.90;13.02;;;;;;;16.33;80.52;102332.09;5015516;28;20038;-95
2022/07/11 03:36:50;;;;;;;23.70;12.95;;;;;;;16.33;81.37;102337.38;5022789;28;20095;-96
2022/07/11 03:39:15;;;;;;;26.85;12.68;;;;;;;16.33;80.81;102332.09;5012048;28;20028;-96
2022/07/11 03:41:41;;;;;;;23.58;13.05;;;;;;;16.32;81.03;102339.13;5010957;28;20033;-96
2022/07/11 03:44:07;;;;;;;23.30;12.73;;;;;;;16.32;80.86;102331.22;5012498;28;20030;-96
2022/07/11 03:46:32;;;;;;;23.75;13.40;;;;;;;16.34;81.09;102334.78;5024006;28;20049;-96
2022/07/11 03:48:58;;;;;;;22.63;12.90;;;;;;;16.34;80.71;102337.41;5017013;28;20029;-96
2022/07/11 03:51:24;;;;;;;21.13;12.32;;;;;;;16.34;80.86;102337.41;5006648;28;20631;-96
2022/07/11 03:53:49;;;;;;;22.75;12.10;;;;;;;16.36;80.24;102329.53;5016301;28;20024;-96
2022/07/11 03:56:22;;;;;;;22.58;12.05;;;;;;;16.36;80.21;102332.19;5011445;28;20030;-92
2022/07/11 03:58:50;;;;;;;21.98;12.68;;;;;;;16.38;80.68;102324.31;4989807;28;20030;-93
2022/07/11 04:01:16;;;;;;;26.63;12.83;;;;;;;16.36;80.82;102324.28;5003175;28;20030;-92
2022/07/11 04:03:41;;;;;;;21.90;12.43;;;;;;;16.37;80.56;102330.47;5006503;28;20044;-92
2022/07/11 04:06:06;;;;;;;26.00;12.50;;;;;;;16.38;81.03;102335.75;5006710;28;20033;-92
2022/07/11 04:08:32;;;;;;;22.83;12.48;;;;;;;16.41;80.95;102342.81;4998881;28;20519;-92
2022/07/11 04:10:57;;;;;;;20.30;12.27;;;;;;;16.38;80.61;102333.13;5002266;28;20022;-93
2022/07/11 04:13:22;;;;;;;24.95;12.68;;;;;;;16.40;80.88;102328.78;5007523;28;20030;-92
2022/07/11 04:15:48;;;;;;;22.20;13.10;;;;;;;16.41;80.85;102324.38;4995441;28;20018;-92
2022/07/11 04:18:13;;;;;;;22.67;12.85;;;;;;;16.41;81.49;102332.28;5005378;28;20408;-93
2022/07/11 04:20:40;;;;;;;24.17;12.30;;;;;;;16.40;81.36;102330.53;5005087;28;20407;-93
2022/07/11 04:23:05;;;;;;;21.05;12.45;;;;;;;16.42;81.33;102326.16;5008283;28;20025;-93
2022/07/11 04:25:32;;;;;;;21.60;12.90;;;;;;;16.40;81.76;102331.41;5004908;28;20022;-93
2022/07/11 04:27:57;;;;;;;24.27;13.35;;;;;;;16.41;81.24;102330.56;5004724;28;20134;-93
2022/07/11 04:30:23;;;;;;;22.92;12.38;;;;;;;16.41;81.08;102322.66;5008272;28;20101;-92
2022/07/11 04:32:48;;;;;;;24.05;13.13;;;;;;;16.44;81.17;102325.38;5004877;28;20534;-93
2022/07/11 04:35:14;;;;;;;20.42;12.10;;;;;;;16.46;81.10;102330.66;5005657;28;20040;-92
2022/07/11 04:37:39;;;;;;;21.65;12.82;;;;;;;16.45;81.01;102328.88;4999159;28;20050;-93
2022/07/11 04:40:05;;;;;;;21.55;12.80;;;;;;;16.44;81.69;102335.00;5000418;28;20128;-92
2022/07/11 04:42:30;;;;;;;22.42;13.20;;;;;;;16.45;82.01;102337.69;5000318;28;20026;-92
2022/07/11 04:44:56;;;;;;;27.65;14.45;;;;;;;16.44;81.37;102338.50;5010637;28;20041;-92
2022/07/11 04:47:21;;;;;;;27.58;14.60;;;;;;;16.45;81.73;102342.03;5004957;28;20117;-91
2022/07/11 04:49:46;;;;;;;22.85;13.13;;;;;;;16.47;82.10;102350.88;4999671;28;20030;-91
2022/07/11 04:52:13;;;;;;;22.13;12.50;;;;;;;16.47;81.62;102348.22;5007696;28;20026;-92
2022/07/11 04:54:39;;;;;;;26.15;13.23;;;;;;;16.48;81.15;102349.97;5008624;28;20069;-92
2022/07/11 04:57:05;;;;;;;23.48;12.95;;;;;;;16.48;81.86;102352.63;5008650;28;20551;-93
2022/07/11 04:59:30;;;;;;;22.98;13.00;;;;;;;16.47;82.01;102357.00;5004514;28;20025;-91
2022/07/11 05:01:55;;;;;;;20.52;12.85;;;;;;;16.47;82.37;102351.75;4998383;28;20100;-89
2022/07/11 05:04:21;;;;;;;19.77;12.82;;;;;;;16.48;81.92;102355.25;5003501;28;20434;-91
2022/07/11 05:06:46;;;;;;;23.45;13.73;;;;;;;16.48;82.27;102360.50;5007688;28;20030;-90
2022/07/11 05:09:11;;;;;;;26.92;13.43;;;;;;;16.47;81.97;102351.75;5003969;28;20022;-90
2022/07/11 05:11:36;;;;;;;22.55;12.90;;;;;;;16.49;82.42;102370.19;5005552;28;20121;-90
2022/07/11 05:14:02;;;;;;;21.50;13.38;;;;;;;16.49;83.06;102365.81;5005659;28;20525;-90
2022/07/11 05:16:27;;;;;;;21.98;13.68;;;;;;;16.50;83.05;102366.72;5009863;28;20037;-90
2022/07/11 05:18:52;;;;;;;23.25;13.80;;;;;;;16.51;83.22;102366.75;5011343;28;20029;-89
2022/07/11 05:21:22;;;;;;;22.88;14.90;;;;;;;16.54;83.12;102363.31;5002111;28;21117;-89
2022/07/11 05:23:48;;;;;;;25.67;15.35;;;;;;;16.52;82.54;102368.53;5003824;28;20021;-93
2022/07/11 05:26:14;;;;;;;20.75;14.13;;;;;;;16.55;82.49;102362.44;5003754;28;20034;-92
2022/07/11 05:28:40;;;;;;;24.92;15.15;;;;;;;16.54;82.40;102360.69;5004543;28;20042;-93
2022/07/11 05:31:05;;;;;;;24.65;15.45;;;;;;;16.58;83.71;102374.78;5007513;28;20084;-93
2022/07/11 05:33:30;;;;;;;21.63;14.48;;;;;;;16.58;83.07;102370.41;4998092;28;20059;-94
2022/07/11 05:35:56;;;;;;;21.52;14.40;;;;;;;16.61;83.56;102372.22;5004053;28;20037;-94
2022/07/11 05:38:21;;;;;;;25.23;14.38;;;;;;;16.62;83.04;102371.38;4996703;28;20057;-93
2022/07/11 05:40:47;;;;;;;23.52;13.65;;;;;;;16.61;82.74;102369.59;4999520;28;20026;-96
2022/07/11 05:43:13;;;;;;;23.35;12.63;;;;;;;16.62;82.62;102369.63;4997745;28;20113;-96
2022/07/11 05:45:38;;;;;;;19.90;12.32;;;;;;;16.63;82.90;102368.78;4998919;28;20121;-96
2022/07/11 05:48:04;;;;;;;22.67;12.95;;;;;;;16.64;83.42;102370.56;5013201;28;20103;-95
2022/07/11 05:50:29;;;;;;;21.65;11.98;;;;;;;16.64;83.29;102370.56;5002437;28;20029;-93
2022/07/11 05:52:57;;;;;;;20.60;12.25;;;;;;;16.67;83.25;102375.88;5008927;28;20037;-94
2022/07/11 05:55:23;;;;;;;21.85;11.60;;;;;;;16.68;83.21;102379.41;5010877;28;20084;-94
2022/07/11 05:57:48;;;;;;;23.27;11.80;;;;;;;16.69;83.58;102375.94;5006296;28;20026;-94
2022/07/11 06:00:13;;;;;;;25.65;12.63;;;;;;;16.69;84.11;102378.56;5010499;28;20026;-94
2022/07/11 06:02:39;;;;;;;21.30;12.43;;;;;;;16.68;83.97;102371.50;4999919;28;20264;-95
2022/07/11 06:05:04;;;;;;;23.33;12.48;;;;;;;16.69;84.26;102379.44;5009799;28;20034;-94
2022/07/11 06:10:18;;;;;;;20.42;13.23;;;;;;;16.73;83.55;102385.66;4997169;28;20033;-94
2022/07/11 06:12:44;;;;;;;20.25;13.13;;;;;;;16.73;84.19;102387.41;4997102;28;20021;-95
2022/07/11 06:15:12;;;;;;;24.02;14.07;;;;;;;16.75;84.40;102394.47;5000312;28;20022;-94
2022/07/11 06:17:37;;;;;;;20.77;12.68;;;;;;;16.76;84.66;102392.75;4991734;28;20030;-95
2022/07/11 06:20:03;;;;;;;20.23;10.93;;;;;;;16.74;84.47;102392.69;4991271;28;20018;-94
2022/07/11 06:22:29;;;;;;;17.52;10.60;;;;;;;16.77;83.97;102397.16;5007184;28;20142;-94
2022/07/11 06:24:54;;;;;;;20.30;10.38;;;;;;;16.79;84.22;102395.47;5005095;28;20053;-94
2022/07/11 06:27:19;;;;;;;14.00;8.50;;;;;;;16.78;84.02;102393.66;5007521;28;20030;-94
2022/07/11 06:29:45;;;;;;;14.57;8.82;;;;;;;16.78;84.28;102393.66;4994612;28;20065;-94
2022/07/11 06:32:10;;;;;;;13.55;7.90;;;;;;;16.79;83.93;102395.47;4990939;28;20506;-94
2022/07/11 06:34:36;;;;;;;18.10;8.35;;;;;;;16.78;84.27;102394.53;4990919;28;21129;-95
2022/07/11 06:37:03;;;;;;;13.57;7.95;;;;;;;16.80;84.33;102403.38;4992187;28;20046;-95
2022/07/11 06:39:28;;;;;;;12.38;7.55;;;;;;;16.81;84.18;102394.59;5002442;28;20030;-94
2022/07/11 06:41:53;;;;;;;12.70;7.45;;;;;;;16.82;84.26;102403.41;4990761;28;20149;-95
2022/07/11 06:44:19;;;;;;;13.35;7.15;;;;;;;16.82;83.82;102399.03;5002159;28;20026;-94
2022/07/11 06:46:44;;;;;;;11.85;6.90;;;;;;;16.83;83.74;102398.19;5000452;28;20018;-94
2022/07/11 06:49:12;;;;;;;10.68;6.22;;;;;;;16.84;82.60;102401.69;4990949;28;20388;-94
2022/07/11 06:51:38;;;;;;;10.48;6.40;;;;;;;16.85;83.37;102396.47;5003487;28;20048;-95
2022/07/11 06:54:03;;;;;;;10.07;6.00;;;;;;;16.84;83.01;102392.06;5000670;28;20492;-94
2022/07/11 06:56:29;;;;;;;10.45;5.75;;;;;;;16.84;82.86;102392.06;5002395;28;20048;-94
2022/07/11 06:58:54;;;;;;;9.27;6.03;;;;;;;16.88;83.11;102392.19;5005954;28;20432;-94
2022/07/11 07:01:20;;;;;;;9.95;5.82;;;;;;;16.86;82.93;102389.47;4995525;28;20030;-95
2022/07/11 07:03:45;;;;;;;9.98;5.50;;;;;;;16.86;83.86;102389.47;5003369;28;20030;-95
2022/07/11 07:06:12;;;;;;;10.27;6.35;;;;;;;16.91;83.10;102392.25;4991566;28;20485;-95
2022/07/11 07:08:38;;;;;;;11.40;5.85;;;;;;;16.88;83.45;102379.00;5008267;28;20075;-96
2022/07/11 07:11:03;;;;;;;10.50;6.20;;;;;;;16.94;83.61;102392.31;5008248;28;20457;-96
2022/07/11 07:13:29;;;;;;;11.05;6.35;;;;;;;16.94;83.50;102390.53;5009867;28;20048;-96
2022/07/11 07:15:55;;;;;;;12.35;6.55;;;;;;;16.96;83.25;102382.69;5006951;28;20053;-96
2022/07/11 07:18:21;;;;;;;11.95;6.18;;;;;;;17.01;82.93;102387.19;5008475;28;20092;-96
2022/07/11 07:20:47;;;;;;;11.88;6.70;;;;;;;17.01;83.04;102375.78;5011831;28;20026;-96
2022/07/11 07:23:13;;;;;;;10.43;6.40;;;;;;;17.06;83.16;102378.50;5000598;28;20026;-96
2022/07/11 07:25:39;;;;;;;12.00;6.40;;;;;;;17.08;83.33;102371.53;4995739;28;20030;-96
2022/07/11 07:28:05;;;;;;;11.45;6.57;;;;;;;17.13;83.15;102373.44;4993789;28;20049;-96
2022/07/11 07:30:31;;;;;;;12.55;6.75;;;;;;;17.17;82.27;102369.97;5010454;28;20029;-96
2022/07/11 07:32:56;;;;;;;12.23;6.63;;;;;;;17.19;82.98;102376.19;5011188;28;20495;-96
2022/07/11 07:35:22;;;;;;;12.23;6.03;;;;;;;17.23;83.20;102378.88;5011123;28;20030;-96
2022/07/11 07:37:47;;;;;;;11.73;5.90;;;;;;;17.26;82.74;102378.94;4990098;28;20063;-94
2022/07/11 07:40:13;;;;;;;15.43;6.35;;;;;;;17.31;82.47;102382.56;4996696;28;20053;-94
2022/07/11 07:42:38;;;;;;;10.55;5.70;;;;;;;17.32;81.34;102381.69;4992351;28;20029;-94
2022/07/11 07:45:04;;;;;;;11.02;5.85;;;;;;;17.34;82.52;102380.00;4998552;28;20030;-95
2022/07/11 07:47:30;;;;;;;10.18;5.70;;;;;;;17.35;81.59;102381.75;4989690;28;20034;-95
2022/07/11 07:49:55;;;;;;;9.48;5.13;;;;;;;17.37;81.92;102382.69;5008921;28;20153;-95
2022/07/11 07:52:21;;;;;;;10.07;4.90;;;;;;;17.42;82.93;102386.28;5005229;28;20437;-93
2022/07/11 07:54:46;;;;;;;10.75;5.20;;;;;;;17.46;81.95;102389.88;4996212;28;20026;-92
2022/07/11 07:57:12;;;;;;;8.07;4.90;;;;;;;17.50;82.24;102383.81;5005215;28;20025;-92
2022/07/11 07:59:37;;;;;;;9.18;4.70;;;;;;;17.52;81.75;102383.00;4997292;28;20065;-92
2022/07/11 08:02:03;;;;;;;12.05;5.47;;;;;;;17.52;81.38;102390.91;4993373;28;20511;-92
2022/07/11 08:04:29;;;;;;;9.75;4.93;;;;;;;17.56;81.14;102402.38;4990144;28;20489;-92
2022/07/11 08:06:54;;;;;;;11.60;5.35;;;;;;;17.60;81.81;102398.03;4988694;28;20186;-91
2022/07/11 08:09:20;;;;;;;8.93;4.85;;;;;;;17.61;81.75;102394.56;4999874;28;20601;-92
2022/07/11 08:11:45;;;;;;;7.97;5.07;;;;;;;17.65;81.16;102393.75;5003948;28;20026;-92
2022/07/11 08:14:11;;;;;;;8.88;4.13;;;;;;;17.68;79.30;102401.72;5004647;28;20032;-92
2022/07/11 08:16:36;;;;;;;8.50;4.45;;;;;;;17.70;80.82;102394.75;4995583;28;20088;-92
2022/07/11 08:19:04;;;;;;;8.82;5.22;;;;;;;17.73;81.26;102394.81;4995384;28;20404;-92
2022/07/11 08:21:29;;;;;;;8.63;4.28;;;;;;;17.79;82.41;102399.31;5009927;28;20505;-92
2022/07/11 08:23:57;;;;;;;8.13;4.43;;;;;;;17.80;79.81;102404.59;5003647;28;20014;-92
2022/07/11 08:26:22;;;;;;;8.98;4.60;;;;;;;17.80;78.94;102398.41;5015080;28;20108;-93
2022/07/11 08:28:48;;;;;;;9.88;4.15;;;;;;;17.80;79.22;102399.34;5003898;28;20105;-92
2022/07/11 08:31:13;;;;;;;7.32;4.10;;;;;;;17.84;80.26;102398.53;5001696;28;20022;-92
2022/07/11 08:33:38;;;;;;;8.75;4.53;;;;;;;17.84;80.13;102403.81;4995317;28;20022;-93
2022/07/11 08:36:06;;;;;;;10.32;5.47;;;;;;;17.86;80.41;102407.34;4994833;28;20030;-93
2022/07/11 08:38:31;;;;;;;10.23;5.70;;;;;;;17.88;80.59;102408.25;5000158;28;20037;-92
2022/07/11 08:40:56;;;;;;;13.13;6.45;;;;;;;17.89;80.28;102403.88;4998780;28;20037;-92
2022/07/11 08:43:27;;;;;;;10.60;6.20;;;;;;;17.90;79.75;102400.41;4999801;28;20675;-92
2022/07/11 08:45:54;;;;;;;11.38;6.18;;;;;;;17.95;80.19;102400.50;5003532;28;20570;-92
2022/07/11 08:48:20;;;;;;;12.98;6.63;;;;;;;18.00;81.02;102401.47;5001743;28;20026;-91
2022/07/11 08:50:46;;;;;;;14.90;6.90;;;;;;;18.05;80.25;102399.81;5010537;28;20018;-91
2022/07/11 08:53:13;;;;;;;15.73;7.55;;;;;;;18.11;80.45;102401.66;5015620;28;20025;-92
2022/07/11 08:55:39;;;;;;;12.93;7.35;;;;;;;18.16;79.39;102398.25;5010625;28;20403;-92
2022/07/11 08:58:07;;;;;;;12.00;7.38;;;;;;;18.16;78.32;102398.25;5005283;28;20111;-90
2022/07/11 09:00:32;;;;;;;13.63;7.07;;;;;;;18.19;79.16;102403.56;5015332;28;20037;-92
2022/07/11 09:03:00;;;;;;;14.85;7.70;;;;;;;18.23;79.27;102397.50;5013562;28;20021;-93
2022/07/11 09:05:27;;;;;;;12.85;7.35;;;;;;;18.27;78.83;102403.69;5012831;28;20132;-92
2022/07/11 09:07:52;;;;;;;15.27;8.20;;;;;;;18.28;78.21;102394.00;5008202;28;20072;-95
2022/07/11 09:10:18;;;;;;;13.38;8.10;;;;;;;18.35;78.96;102390.59;5008215;28;20496;-96
2022/07/11 09:13:00;;;;;;;14.35;8.75;;;;;;;18.36;79.88;102387.13;5012552;28;20533;-96
2022/07/11 09:15:40;;;;;;;15.43;8.98;;;;;;;18.40;79.83;102384.53;5014032;28;20481;-96
2022/07/11 09:18:30;;;;;;;16.48;8.82;;;;;;;18.48;79.15;102395.25;5004989;28;20052;-96
2022/07/11 09:26:51;;;;;;;17.95;9.32;;;;;;;18.58;78.34;102393.59;4988295;28;20045;-56
2022/07/11 09:29:20;;;;;;;18.63;10.20;;;;;;;18.59;78.52;102396.28;4990040;28;20421;-56
2022/07/11 09:31:46;;;;;;;;;;;;;;;18.66;78.27;102391.97;4986212;28;20026;-56
2022/07/11 09:34:16;;;;;;;21.02;9.02;;;;;;;18.64;77.98;102395.47;4991220;28;19963;-55
2022/07/11 09:36:51;;;;;;;17.05;9.48;;;;;;;18.64;77.83;102398.09;4992814;28;20088;-56
2022/07/11 09:39:25;;;;;;;17.40;9.73;;;;;;;18.67;78.86;102403.41;4993342;28;20042;-56
2022/07/11 09:41:52;;;;;;;16.85;9.45;;;;;;;18.69;77.95;102396.44;4993595;28;20023;-56
2022/07/11 09:44:19;;;;;;;17.05;8.48;;;;;;;18.71;78.48;102397.31;4992415;28;20034;-56
2022/07/11 09:46:47;;;;;;;16.55;7.80;;;;;;;18.71;78.30;102405.25;4992747;28;20042;-56
2022/07/11 09:49:14;;;;;;;15.63;8.50;;;;;;;18.72;78.00;102400.00;4991207;28;20041;-56
2022/07/11 09:51:40;;;;;;;15.00;8.10;;;;;;;18.75;78.27;102393.88;4992152;28;20073;-56
2022/07/11 09:54:06;;;;;;;18.75;8.40;;;;;;;18.77;78.85;102402.72;4992162;28;20061;-55
2022/07/11 09:56:40;;;;;;;18.90;8.27;;;;;;;18.78;77.71;102396.56;4992550;28;21019;-55
2022/07/11 09:59:08;;;;;;;14.32;7.65;;;;;;;18.80;78.52;102396.56;4991706;28;20102;-55
2022/07/11 10:01:34;;;;;;;16.00;8.88;;;;;;;18.81;78.33;102396.59;4992760;28;20441;-55
2022/07/11 10:04:00;;;;;;;16.27;8.82;;;;;;;18.83;76.68;102394.88;4992086;28;20026;-55
2022/07/11 10:06:25;;;;;;;18.55;9.85;;;;;;;18.84;76.04;102401.03;4992740;28;20442;-56
2022/07/11 10:08:51;;;;;;;17.00;9.20;;;;;;;18.82;76.56;102397.50;4992128;28;20041;-55
2022/07/11 10:11:17;;;;;;;16.45;9.02;;;;;;;18.85;77.01;102403.69;4988364;28;20089;-55
2022/07/11 10:13:43;;;;;;;15.50;8.65;;;;;;;18.89;77.16;102400.28;4992051;28;20033;-54
2022/07/11 10:16:25;;;;;;;17.95;9.40;;;;;;;18.93;77.60;102395.94;4991465;28;20034;-55
2022/07/11 10:19:11;;;;;;;17.60;9.75;;;;;;;18.97;77.19;102402.13;4989975;28;20034;-55
2022/07/11 10:21:56;;;;;;;16.60;9.93;;;;;;;18.99;76.44;102395.09;4990937;28;20054;-55
2022/07/11 10:24:55;;;;;;;17.80;9.13;;;;;;;19.04;76.58;102393.44;4991491;28;20309;-55
2022/07/11 10:27:51;;;;;;;15.55;8.88;;;;;;;19.05;76.21;102389.94;4991144;28;20034;-55
2022/07/11 10:30:40;;;;;;;18.40;9.52;;;;;;;19.08;75.87;102400.53;4992033;28;20022;-55
2022/07/11 10:33:06;;;;;;;17.77;8.95;;;;;;;19.11;76.61;102411.13;4990989;28;20022;-56
2022/07/11 10:35:31;;;;;;;18.60;8.77;;;;;;;19.13;75.93;102403.22;4991560;28;20034;-56
2022/07/11 10:37:58;;;;;;;14.85;8.05;;;;;;;19.17;77.29;102405.03;4991721;28;20077;-56
2022/07/11 10:40:45;;;;;;;14.52;7.70;;;;;;;19.19;76.46;102404.22;4992078;28;20026;-56
2022/07/11 10:43:11;;;;;;;13.55;7.20;;;;;;;19.21;76.54;102405.09;4991401;28;20030;-56
2022/07/11 10:46:02;;;;;;;12.75;6.72;;;;;;;19.23;76.40;102403.38;4991447;28;20029;-57
2022/07/11 10:48:31;;;;;;;11.05;6.50;;;;;;;19.25;76.01;102392.81;4989835;28;20022;-56
2022/07/11 10:51:11;;;;;;;11.07;6.33;;;;;;;19.28;76.38;102408.72;4991766;28;20049;-55
2022/07/11 10:53:46;;;;;;;11.20;6.53;;;;;;;19.33;76.37;102408.78;4991950;28;20449;-56
2022/07/11 10:56:24;;;;;;;9.77;6.63;;;;;;;19.34;76.85;102407.91;4991984;28;20034;-55
2022/07/11 10:59:13;;;;;;;11.48;6.57;;;;;;;19.37;75.04;102410.59;4990914;28;20030;-55
2022/07/11 11:02:12;;;;;;;9.73;6.15;;;;;;;19.40;76.19;102405.34;5089806;22;20080;-60
2022/07/11 11:04:52;;;;;;;11.35;7.00;;;;;;;19.45;76.09;102408.91;5007900;28;20073;-61
2022/07/11 11:07:44;;;;;;;16.73;6.85;;;;;;;19.49;77.13;102408.06;5008247;28;20042;-61
2022/07/11 11:10:18;;;;;;;11.32;7.00;;;;;;;19.57;77.04;102406.41;4996625;28;20087;-59
2022/07/11 11:13:20;;;;;;;11.75;7.03;;;;;;;19.63;76.23;102401.19;4999428;28;20544;-60
2022/07/11 11:15:54;;;;;;;11.05;6.30;;;;;;;19.68;76.78;102403.88;4919917;29;20193;-60
2022/07/11 11:18:22;;;;;;;11.15;6.38;;;;;;;19.75;76.62;102404.84;4989648;28;20038;-60
2022/07/11 11:21:09;;;;;;;11.20;6.28;;;;;;;19.80;75.74;102404.03;5000894;28;20497;-60
2022/07/11 11:23:42;;;;;;;11.05;7.05;;;;;;;19.83;74.89;102408.50;4998718;28;20462;-60
2022/07/11 11:26:08;;;;;;;9.80;6.60;;;;;;;19.89;75.16;102405.91;4995433;28;20034;-59